createdAt,value
2017-12-19T00:01:05.397Z,102424.13
2017-12-19T00:03:32.981Z,102415.53
2017-12-19T00:06:00.617Z,102416.78
2017-12-19T00:08:28.201Z,102417.42
2017-12-19T00:10:55.771Z,102423.58
2017-12-19T00:13:23.377Z,102435.16
2017-12-19T00:15:50.961Z,102442.30
2017-12-19T00:18:18.592Z,102433.94
2017-12-19T00:20:46.202Z,102433.09
2017-12-19T00:23:13.783Z,102434.69
2017-12-19T00:25:41.403Z,102434.15
2017-12-19T00:28:09.020Z,102431.88
2017-12-19T00:30:36.647Z,102423.06
2017-12-19T00:33:04.306Z,102434.30
2017-12-19T00:35:32.173Z,102430.58
2017-12-19T00:38:00.244Z,102425.63
2017-12-19T00:40:27.820Z,102432.05
2017-12-19T00:42:55.460Z,102434.23
2017-12-19T00:45:23.045Z,102444.61
2017-12-19T00:47:50.631Z,102443.45
2017-12-19T00:50:18.232Z,102442.70
2017-12-19T00:52:45.806Z,102440.22
2017-12-19T00:55:13.432Z,102448.66
2017-12-19T00:57:41.022Z,102450.06
2017-12-19T01:00:08.597Z,102460.02
2017-12-19T01:02:36.560Z,102466.14
2017-12-19T01:05:04.149Z,102467.28
2017-12-19T01:07:31.774Z,102464.37
2017-12-19T01:09:59.356Z,102473.34
2017-12-19T01:12:26.937Z,102465.34
2017-12-19T01:14:54.613Z,102468.90
2017-12-19T01:17:22.192Z,102468.02
2017-12-19T01:19:49.867Z,102465.67
2017-12-19T01:22:17.767Z,102470.79
2017-12-19T01:24:45.625Z,102473.78
2017-12-19T01:27:13.231Z,102477.27
2017-12-19T01:29:40.829Z,102476.09
2017-12-19T01:32:08.463Z,102475.56
2017-12-19T01:34:36.069Z,102475.95
2017-12-19T01:37:03.949Z,102477.23
2017-12-19T01:39:31.582Z,102479.39
2017-12-19T01:41:59.477Z,102483.09
2017-12-19T01:44:27.118Z,102485.75
2017-12-19T01:46:54.725Z,102492.62
2017-12-19T01:49:22.333Z,102483.41
2017-12-19T01:51:49.952Z,102484.37
2017-12-19T01:54:17.775Z,102489.94
2017-12-19T01:56:45.420Z,102476.12
2017-12-19T01:59:13.011Z,102469.77
2017-12-19T02:01:40.615Z,102470.18
2017-12-19T02:04:08.551Z,102472.56
2017-12-19T02:06:36.143Z,102468.77
2017-12-19T02:09:03.800Z,102474.21
2017-12-19T02:11:31.394Z,102472.29
2017-12-19T02:13:58.972Z,102481.04
2017-12-19T02:16:26.616Z,102475.31
2017-12-19T02:18:54.192Z,102477.09
2017-12-19T02:21:21.815Z,102469.16
2017-12-19T02:23:49.392Z,102467.88
2017-12-19T02:26:17.113Z,102464.06
2017-12-19T02:28:44.720Z,102465.31
2017-12-19T02:31:12.296Z,102457.89
2017-12-19T02:33:39.916Z,102459.78
2017-12-19T02:36:07.499Z,102468.06
2017-12-19T02:38:35.172Z,102464.89
2017-12-19T02:41:02.785Z,102465.04
2017-12-19T02:43:30.385Z,102461.41
2017-12-19T02:45:57.988Z,102458.28
2017-12-19T02:48:25.585Z,102445.55
2017-12-19T02:50:53.201Z,102449.72
2017-12-19T02:53:20.803Z,102445.05
2017-12-19T02:55:48.384Z,102446.20
2017-12-19T02:58:15.999Z,102447.16
2017-12-19T03:00:43.604Z,102447.55
2017-12-19T03:03:11.552Z,102450.78
2017-12-19T03:05:39.166Z,102456.22
2017-12-19T03:08:07.074Z,102469.77
2017-12-19T03:10:34.970Z,102471.73
2017-12-19T03:13:02.548Z,102475.50
2017-12-19T03:15:30.172Z,102478.63
2017-12-19T03:17:57.752Z,102477.41
2017-12-19T03:20:25.329Z,102473.47
2017-12-19T03:22:52.953Z,102479.83
2017-12-19T03:25:20.529Z,102485.62
2017-12-19T03:27:48.150Z,102477.20
2017-12-19T03:30:15.752Z,102476.45
2017-12-19T03:32:43.349Z,102468.77
2017-12-19T03:35:10.972Z,102460.91
2017-12-19T03:37:38.788Z,102463.19
2017-12-19T03:40:06.407Z,102467.06
2017-12-19T03:42:34.008Z,102476.23
2017-12-19T03:45:01.613Z,102477.09
2017-12-19T03:47:29.219Z,102477.27
2017-12-19T03:49:57.141Z,102481.50
2017-12-19T03:52:27.525Z,102479.41
2017-12-19T03:54:55.445Z,102484.17
2017-12-19T03:57:23.051Z,102491.31
2017-12-19T03:59:50.672Z,102492.14
2017-12-19T04:02:18.260Z,102490.11
2017-12-19T04:04:45.859Z,102469.88
2017-12-19T04:07:13.516Z,102472.19
2017-12-19T04:09:41.096Z,102472.05
2017-12-19T04:12:08.711Z,102472.40
2017-12-19T04:14:36.400Z,102476.28
2017-12-19T04:17:03.980Z,102478.30
2017-12-19T04:19:31.610Z,102479.94
2017-12-19T04:21:59.529Z,102481.33
2017-12-19T04:24:27.148Z,102490.47
2017-12-19T04:26:54.728Z,102484.17
2017-12-19T04:29:22.320Z,102479.44
2017-12-19T04:31:49.933Z,102469.59
2017-12-19T04:34:17.565Z,102461.34
2017-12-19T04:36:45.197Z,102474.64
2017-12-19T04:39:12.775Z,102477.45
2017-12-19T04:41:40.368Z,102466.78
2017-12-19T04:44:07.996Z,102462.87
2017-12-19T04:46:35.677Z,102462.97
2017-12-19T04:49:03.300Z,102458.73
2017-12-19T04:51:30.913Z,102467.88
2017-12-19T04:53:58.502Z,102478.30
2017-12-19T04:56:26.103Z,102474.06
2017-12-19T04:58:53.680Z,102478.66
2017-12-19T05:01:21.626Z,102488.05
2017-12-19T05:03:49.229Z,102490.75
2017-12-19T05:06:16.884Z,102498.89
2017-12-19T05:08:44.480Z,102499.85
2017-12-19T05:11:12.057Z,102489.33
2017-12-19T05:13:39.696Z,102488.33
2017-12-19T05:16:07.276Z,102479.62
2017-12-19T05:18:34.857Z,102476.80
2017-12-19T05:21:02.471Z,102467.13
2017-12-19T05:23:30.058Z,102470.91
2017-12-19T05:25:57.965Z,102480.68
2017-12-19T05:28:25.539Z,102473.31
2017-12-19T05:30:53.114Z,102469.37
2017-12-19T05:33:21.041Z,102473.92
2017-12-19T05:35:48.619Z,102478.44
2017-12-19T05:38:16.245Z,102485.47
2017-12-19T05:40:43.890Z,102490.03
2017-12-19T05:43:11.497Z,102492.73
2017-12-19T05:45:39.107Z,102487.64
2017-12-19T05:48:06.724Z,102485.97
2017-12-19T05:50:34.685Z,102483.80
2017-12-19T05:53:02.275Z,102494.51
2017-12-19T05:55:29.852Z,102495.18
2017-12-19T05:57:57.781Z,102498.18
2017-12-19T06:00:26.220Z,102488.64
2017-12-19T06:02:54.134Z,102477.59
2017-12-19T06:05:21.990Z,102486.91
2017-12-19T06:07:49.598Z,102485.53
2017-12-19T06:10:17.301Z,102483.19
2017-12-19T06:12:44.942Z,102484.33
2017-12-19T06:15:12.572Z,102482.91
2017-12-19T06:17:40.191Z,102485.75
2017-12-19T06:20:07.782Z,102478.17
2017-12-19T06:22:35.386Z,102483.80
2017-12-19T06:25:03.356Z,102489.48
2017-12-19T06:27:30.948Z,102480.87
2017-12-19T06:29:58.531Z,102476.45
2017-12-19T06:32:26.176Z,102481.67
2017-12-19T06:34:53.797Z,102487.47
2017-12-19T06:37:21.725Z,102499.48
2017-12-19T06:39:49.386Z,102498.13
2017-12-19T06:42:16.974Z,102505.21
2017-12-19T06:44:44.564Z,102510.30
2017-12-19T06:47:12.207Z,102510.77
2017-12-19T06:49:39.788Z,102503.19
2017-12-19T06:52:07.429Z,102498.05
2017-12-19T06:54:34.999Z,102505.17
2017-12-19T06:57:02.572Z,102507.38
2017-12-19T06:59:30.193Z,102521.55
2017-12-19T07:01:58.043Z,102531.58
2017-12-19T07:04:25.663Z,102534.31
2017-12-19T07:06:53.269Z,102526.70
2017-12-19T07:09:20.868Z,102529.13
2017-12-19T07:11:48.512Z,102538.16
2017-12-19T07:14:16.908Z,102554.88
2017-12-19T07:16:44.535Z,102550.05
2017-12-19T07:19:12.399Z,102546.48
2017-12-19T07:21:39.971Z,102545.55
2017-12-19T07:24:07.572Z,102535.48
2017-12-19T07:26:35.188Z,102531.89
2017-12-19T07:29:02.803Z,102519.02
2017-12-19T07:31:30.720Z,102512.71
2017-12-19T07:33:58.312Z,102520.89
2017-12-19T07:36:25.937Z,102539.28
2017-12-19T07:38:53.525Z,102554.56
2017-12-19T07:41:21.152Z,102561.68
2017-12-19T07:43:48.790Z,102545.16
2017-12-19T07:46:16.380Z,102543.52
2017-12-19T07:48:43.996Z,102540.60
2017-12-19T07:51:11.603Z,102534.84
2017-12-19T07:53:39.278Z,102526.52
2017-12-19T07:56:06.860Z,102527.04
2017-12-19T07:58:34.435Z,102521.73
2017-12-19T08:01:02.309Z,102525.65
2017-12-19T08:03:29.908Z,102523.27
2017-12-19T08:05:57.548Z,102529.99
2017-12-19T08:08:25.150Z,102528.11
2017-12-19T08:10:53.025Z,102532.48
2017-12-19T08:13:20.637Z,102535.17
2017-12-19T08:15:48.268Z,102540.25
2017-12-19T08:18:15.867Z,102541.06
2017-12-19T08:20:43.460Z,102545.13
2017-12-19T08:23:11.052Z,102556.41
2017-12-19T08:25:38.660Z,102555.97
2017-12-19T08:28:06.276Z,102555.11
2017-12-19T08:30:33.918Z,102555.97
2017-12-19T08:33:01.511Z,102549.09
2017-12-19T08:35:29.080Z,102547.59
2017-12-19T08:37:56.684Z,102552.37
2017-12-19T08:40:24.281Z,102548.59
2017-12-19T08:42:51.900Z,102545.42
2017-12-19T08:45:19.482Z,102543.78
2017-12-19T08:47:47.071Z,102539.56
2017-12-19T08:50:14.680Z,102530.14
2017-12-19T08:52:42.265Z,102542.89
2017-12-19T08:55:10.140Z,102554.32
2017-12-19T08:57:38.006Z,102548.63
2017-12-19T09:00:05.589Z,102544.42
2017-12-19T09:02:33.200Z,102538.75
2017-12-19T09:05:00.792Z,102553.64
2017-12-19T09:07:28.757Z,102555.87
2017-12-19T09:09:56.368Z,102566.86
2017-12-19T09:12:23.969Z,102576.19
2017-12-19T09:14:51.581Z,102576.81
2017-12-19T09:17:19.190Z,102583.17
2017-12-19T09:19:46.812Z,102591.70
2017-12-19T09:22:14.419Z,102596.75
2017-12-19T09:24:42.100Z,102590.98
2017-12-19T09:27:09.737Z,102589.58
2017-12-19T09:29:37.326Z,102582.41
2017-12-19T09:32:04.940Z,102582.27
2017-12-19T09:34:32.520Z,102581.76
2017-12-19T09:37:00.184Z,102578.23
2017-12-19T09:39:27.768Z,102573.97
2017-12-19T09:41:55.378Z,102575.08
2017-12-19T09:44:22.991Z,102575.59
2017-12-19T09:46:50.578Z,102559.88
2017-12-19T09:49:18.296Z,102560.70
2017-12-19T09:51:46.181Z,102542.08
2017-12-19T09:54:13.786Z,102551.05
2017-12-19T09:56:41.398Z,102558.10
2017-12-19T09:59:08.983Z,102562.80
2017-12-19T10:01:36.598Z,102552.08
2017-12-19T10:04:04.179Z,102564.31
2017-12-19T10:06:31.757Z,102576.64
2017-12-19T10:08:59.405Z,102578.78
2017-12-19T10:11:27.000Z,102570.13
2017-12-19T10:13:54.620Z,102563.14
2017-12-19T10:16:22.191Z,102567.60
2017-12-19T10:18:49.794Z,102565.00
2017-12-19T10:21:17.416Z,102568.88
2017-12-19T10:23:45.051Z,102566.63
2017-12-19T10:26:12.655Z,102561.08
2017-12-19T10:28:40.305Z,102573.62
2017-12-19T10:31:07.930Z,102583.03
2017-12-19T10:33:35.844Z,102587.42
2017-12-19T10:36:03.469Z,102594.64
2017-12-19T10:38:31.367Z,102598.48
2017-12-19T10:40:58.990Z,102587.66
2017-12-19T10:43:26.596Z,102579.31
2017-12-19T10:45:54.191Z,102579.97
2017-12-19T10:48:21.796Z,102580.78
2017-12-19T10:50:49.389Z,102579.53
2017-12-19T10:53:17.012Z,102572.72
2017-12-19T10:55:44.600Z,102568.09
2017-12-19T10:58:12.316Z,102569.02
2017-12-19T11:00:39.989Z,102570.95
2017-12-19T11:03:07.574Z,102552.27
2017-12-19T11:05:35.206Z,102560.33
2017-12-19T11:08:03.136Z,102560.28
2017-12-19T11:10:30.734Z,102556.27
2017-12-19T11:12:58.368Z,102555.52
2017-12-19T11:15:25.963Z,102540.72
2017-12-19T11:17:53.615Z,102531.87
2017-12-19T11:20:21.215Z,102533.59
2017-12-19T11:22:48.819Z,102529.16
2017-12-19T11:25:16.764Z,102522.68
2017-12-19T11:27:44.344Z,102514.20
2017-12-19T11:30:11.977Z,102507.89
2017-12-19T11:32:39.747Z,102516.58
2017-12-19T11:35:07.423Z,102523.25
2017-12-19T11:37:35.031Z,102535.08
2017-12-19T11:40:02.623Z,102529.77
2017-12-19T11:42:30.243Z,102530.43
2017-12-19T11:44:57.839Z,102508.84
2017-12-19T11:47:25.477Z,102498.14
2017-12-19T11:49:53.120Z,102508.52
2017-12-19T11:52:21.064Z,102508.98
2017-12-19T11:54:49.075Z,102507.83
2017-12-19T11:57:16.667Z,102502.55
2017-12-19T11:59:44.285Z,102517.41
2017-12-19T12:02:11.907Z,102518.00
2017-12-19T12:04:39.590Z,102519.23
2017-12-19T12:07:07.211Z,102518.30
2017-12-19T12:09:34.798Z,102514.23
2017-12-19T12:12:02.434Z,102500.33
2017-12-19T12:14:30.050Z,102482.75
2017-12-19T12:16:57.921Z,102483.34
2017-12-19T12:19:25.887Z,102483.13
2017-12-19T12:21:53.836Z,102494.39
2017-12-19T12:24:21.649Z,102493.94
2017-12-19T12:26:49.281Z,102489.27
2017-12-19T12:29:16.860Z,102491.20
2017-12-19T12:31:44.482Z,102501.63
2017-12-19T12:34:12.067Z,102494.79
2017-12-19T12:36:39.690Z,102494.98
2017-12-19T12:39:07.285Z,102472.05
2017-12-19T12:41:34.865Z,102461.31
2017-12-19T12:44:02.505Z,102482.22
2017-12-19T12:46:30.083Z,102483.76
2017-12-19T12:48:57.933Z,102492.20
2017-12-19T12:51:25.566Z,102488.16
2017-12-19T12:53:53.148Z,102503.15
2017-12-19T12:56:21.021Z,102497.99
2017-12-19T12:58:48.768Z,102507.03
2017-12-19T13:01:16.501Z,102511.17
2017-12-19T13:03:44.113Z,102498.86
2017-12-19T13:06:11.977Z,102496.91
2017-12-19T13:08:39.726Z,102496.60
2017-12-19T13:11:07.336Z,102499.20
2017-12-19T13:13:34.953Z,102502.09
2017-12-19T13:16:02.573Z,102512.28
2017-12-19T13:18:30.166Z,102510.31
2017-12-19T13:20:58.115Z,102518.17
2017-12-19T13:23:26.034Z,102512.23
2017-12-19T13:25:53.716Z,102484.47
2017-12-19T13:28:21.664Z,102496.60
2017-12-19T13:30:49.252Z,102507.37
2017-12-19T13:33:16.877Z,102502.89
2017-12-19T13:35:44.752Z,102520.95
2017-12-19T13:38:12.344Z,102513.34
2017-12-19T13:40:39.981Z,102506.78
2017-12-19T13:43:07.849Z,102511.38
2017-12-19T13:45:36.455Z,102511.04
2017-12-19T13:48:04.041Z,102516.54
2017-12-19T13:50:31.652Z,102519.81
2017-12-19T13:52:59.528Z,102522.92
2017-12-19T13:55:27.121Z,102521.44
2017-12-19T13:57:54.741Z,102520.20
2017-12-19T14:00:22.367Z,102523.22
2017-12-19T14:02:49.985Z,102516.03
2017-12-19T14:05:17.838Z,102522.72
2017-12-19T14:07:45.420Z,102523.88
2017-12-19T14:10:13.029Z,102531.20
2017-12-19T14:12:40.632Z,102532.61
2017-12-19T14:15:08.598Z,102537.56
2017-12-19T14:17:36.206Z,102533.33
2017-12-19T14:20:03.816Z,102529.13
2017-12-19T14:22:31.471Z,102534.83
2017-12-19T14:24:59.138Z,102540.62
2017-12-19T14:27:26.779Z,102555.97
2017-12-19T14:29:54.357Z,102546.81
2017-12-19T14:32:21.967Z,102543.02
2017-12-19T14:34:49.596Z,102543.87
2017-12-19T14:37:17.187Z,102550.62
2017-12-19T14:39:45.468Z,102544.05
2017-12-19T14:42:13.058Z,102542.61
2017-12-19T14:44:40.668Z,102548.06
2017-12-19T14:47:08.328Z,102556.16
2017-12-19T14:49:37.079Z,102555.40
2017-12-19T14:52:04.811Z,102551.05
2017-12-19T14:54:32.743Z,102553.66
2017-12-19T14:57:00.325Z,102545.67
2017-12-19T14:59:27.991Z,102547.05
2017-12-19T15:01:55.582Z,102544.11
2017-12-19T15:04:23.216Z,102549.55
2017-12-19T15:06:50.806Z,102560.47
2017-12-19T15:09:18.423Z,102550.45
2017-12-19T15:11:46.075Z,102547.80
2017-12-19T15:14:13.686Z,102554.67
2017-12-19T15:16:41.347Z,102557.23
2017-12-19T15:19:08.961Z,102558.41
2017-12-19T15:21:36.544Z,102558.80
2017-12-19T15:24:04.164Z,102566.30
2017-12-19T15:26:32.165Z,102560.86
2017-12-19T15:28:59.826Z,102563.80
2017-12-19T15:31:27.797Z,102562.47
2017-12-19T15:33:55.460Z,102560.12
2017-12-19T15:36:23.100Z,102569.27
2017-12-19T15:38:50.716Z,102566.53
2017-12-19T15:41:18.425Z,102574.93
2017-12-19T15:43:46.357Z,102571.59
2017-12-19T15:46:14.006Z,102562.87
2017-12-19T15:48:41.631Z,102568.80
2017-12-19T15:51:09.235Z,102576.89
2017-12-19T15:53:36.908Z,102582.36
2017-12-19T15:56:04.510Z,102580.09
2017-12-19T15:58:32.100Z,102580.38
2017-12-19T16:00:59.745Z,102581.66
2017-12-19T16:03:27.351Z,102581.31
2017-12-19T16:05:55.061Z,102585.70
2017-12-19T16:08:22.680Z,102587.77
2017-12-19T16:10:50.285Z,102592.92
2017-12-19T16:13:17.909Z,102587.68
2017-12-19T16:15:45.553Z,102588.91
2017-12-19T16:18:13.188Z,102587.17
2017-12-19T16:20:41.057Z,102588.06
2017-12-19T16:23:08.694Z,102588.88
2017-12-19T16:25:36.354Z,102588.45
2017-12-19T16:28:03.938Z,102595.14
2017-12-19T16:30:31.616Z,102591.34
2017-12-19T16:32:59.235Z,102603.23
2017-12-19T16:35:26.881Z,102599.11
2017-12-19T16:37:54.510Z,102606.91
2017-12-19T16:40:22.100Z,102607.00
2017-12-19T16:42:49.760Z,102614.41
2017-12-19T16:45:17.368Z,102618.84
2017-12-19T16:47:45.092Z,102606.91
2017-12-19T16:50:12.780Z,102610.83
2017-12-19T16:52:40.687Z,102610.75
2017-12-19T16:55:08.275Z,102604.83
2017-12-19T16:57:35.971Z,102605.64
2017-12-19T17:00:03.570Z,102610.54
2017-12-19T17:02:31.158Z,102610.80
2017-12-19T17:04:58.806Z,102617.88
2017-12-19T17:07:26.659Z,102609.38
2017-12-19T17:09:54.286Z,102619.63
2017-12-19T17:12:21.884Z,102616.08
2017-12-19T17:14:49.465Z,102605.84
2017-12-19T17:17:17.095Z,102597.62
2017-12-19T17:19:44.671Z,102600.64
2017-12-19T17:22:12.344Z,102590.45
2017-12-19T17:24:39.929Z,102600.13
2017-12-19T17:27:07.556Z,102603.63
2017-12-19T17:29:35.167Z,102603.08
2017-12-19T17:32:02.768Z,102605.64
2017-12-19T17:34:30.429Z,102606.58
2017-12-19T17:36:58.026Z,102611.95
2017-12-19T17:39:25.633Z,102620.18
2017-12-19T17:41:53.460Z,102604.66
2017-12-19T17:44:21.099Z,102610.71
2017-12-19T17:46:48.744Z,102606.88
2017-12-19T17:49:16.434Z,102613.10
2017-12-19T17:51:44.388Z,102606.79
2017-12-19T17:54:12.036Z,102604.99
2017-12-19T17:56:39.629Z,102614.09
2017-12-19T17:59:07.292Z,102602.02
2017-12-19T18:01:35.137Z,102597.48
2017-12-19T18:04:03.007Z,102600.81
2017-12-19T18:06:30.650Z,102602.56
2017-12-19T18:08:58.279Z,102601.25
2017-12-19T18:11:25.906Z,102613.36
2017-12-19T18:13:53.502Z,102608.49
2017-12-19T18:16:21.656Z,102605.55
2017-12-19T18:18:49.282Z,102608.75
2017-12-19T18:21:17.188Z,102615.27
2017-12-19T18:23:44.833Z,102614.42
2017-12-19T18:26:12.807Z,102615.31
2017-12-19T18:28:40.440Z,102616.89
2017-12-19T18:31:08.653Z,102612.77
2017-12-19T18:33:36.704Z,102605.55
2017-12-19T18:36:04.385Z,102604.70
2017-12-19T18:38:32.233Z,102607.30
2017-12-19T18:40:59.852Z,102603.00
2017-12-19T18:43:27.868Z,102607.43
2017-12-19T18:45:55.525Z,102602.53
2017-12-19T18:48:23.165Z,102613.14
2017-12-19T18:50:51.066Z,102612.80
2017-12-19T18:53:18.683Z,102616.69
2017-12-19T18:55:46.599Z,102614.42
2017-12-19T18:58:14.463Z,102606.79
2017-12-19T19:00:42.432Z,102602.82
2017-12-19T19:03:10.304Z,102600.13
2017-12-19T19:05:37.928Z,102603.67
2017-12-19T19:08:05.837Z,102598.69
2017-12-19T19:10:33.419Z,102608.75
2017-12-19T19:13:01.057Z,102607.95
2017-12-19T19:15:28.679Z,102614.04
2017-12-19T19:17:56.281Z,102615.41
2017-12-19T19:20:23.901Z,102606.92
2017-12-19T19:22:51.521Z,102603.37
2017-12-19T19:25:19.472Z,102609.18
2017-12-19T19:27:47.349Z,102614.25
2017-12-19T19:30:15.024Z,102619.06
2017-12-19T19:32:42.671Z,102618.26
2017-12-19T19:35:10.280Z,102621.28
2017-12-19T19:37:37.942Z,102618.73
2017-12-19T19:40:05.863Z,102629.69
2017-12-19T19:42:33.470Z,102634.55
2017-12-19T19:45:01.112Z,102628.75
2017-12-19T19:47:28.716Z,102639.80
2017-12-19T19:49:56.732Z,102632.80
2017-12-19T19:52:24.342Z,102637.58
2017-12-19T19:54:51.964Z,102640.27
2017-12-19T19:57:19.614Z,102647.34
2017-12-19T19:59:47.753Z,102649.31
2017-12-19T20:02:15.664Z,102648.16
2017-12-19T20:04:43.281Z,102643.72
2017-12-19T20:07:10.962Z,102649.66
2017-12-19T20:09:38.856Z,102649.66
2017-12-19T20:12:06.446Z,102661.55
2017-12-19T20:14:34.086Z,102663.34
2017-12-19T20:17:01.734Z,102663.86
2017-12-19T20:19:29.770Z,102672.69
2017-12-19T20:21:57.452Z,102678.41
2017-12-19T20:24:25.058Z,102679.98
2017-12-19T20:26:53.664Z,102685.39
2017-12-19T20:29:21.777Z,102691.63
2017-12-19T20:31:49.382Z,102683.73
2017-12-19T20:34:17.063Z,102678.36
2017-12-19T20:36:44.706Z,102676.34
2017-12-19T20:39:12.347Z,102672.84
2017-12-19T20:41:39.965Z,102682.57
2017-12-19T20:44:07.568Z,102685.09
2017-12-19T20:46:35.206Z,102677.16
2017-12-19T20:49:02.808Z,102684.59
2017-12-19T20:51:30.474Z,102686.92
2017-12-19T20:53:58.419Z,102683.47
2017-12-19T20:56:26.053Z,102684.70
2017-12-19T20:58:54.779Z,102689.06
2017-12-19T21:01:22.485Z,102678.98
2017-12-19T21:03:50.123Z,102690.89
2017-12-19T21:06:17.769Z,102689.48
2017-12-19T21:08:45.749Z,102686.80
2017-12-19T21:11:13.369Z,102691.66
2017-12-19T21:13:40.970Z,102703.91
2017-12-19T21:16:08.624Z,102701.60
2017-12-19T21:18:36.217Z,102705.05
2017-12-19T21:21:03.847Z,102700.63
2017-12-19T21:23:31.477Z,102700.15
2017-12-19T21:25:59.079Z,102695.17
2017-12-19T21:28:26.732Z,102699.69
2017-12-19T21:30:54.333Z,102697.98
2017-12-19T21:33:21.916Z,102708.13
2017-12-19T21:35:49.524Z,102708.13
2017-12-19T21:38:17.483Z,102707.62
2017-12-19T21:40:45.313Z,102702.80
2017-12-19T21:43:12.910Z,102703.14
2017-12-19T21:45:40.548Z,102701.78
2017-12-19T21:48:08.171Z,102705.70
2017-12-19T21:50:35.803Z,102694.86
2017-12-19T21:53:03.802Z,102692.64
2017-12-19T21:55:31.422Z,102687.23
2017-12-19T21:57:59.249Z,102688.59
2017-12-19T22:00:26.875Z,102689.36
2017-12-19T22:02:54.523Z,102693.75
2017-12-19T22:05:22.503Z,102685.82
2017-12-19T22:07:50.121Z,102682.96
2017-12-19T22:10:17.753Z,102688.13
2017-12-19T22:12:45.377Z,102688.30
2017-12-19T22:15:12.982Z,102688.38
2017-12-19T22:17:40.596Z,102681.77
2017-12-19T22:20:08.187Z,102686.16
2017-12-19T22:22:35.898Z,102683.81
2017-12-19T22:25:03.515Z,102685.22
2017-12-19T22:27:31.120Z,102690.08
2017-12-19T22:29:59.123Z,102694.82
2017-12-19T22:32:26.790Z,102696.61
2017-12-19T22:34:54.386Z,102695.29
2017-12-19T22:37:22.009Z,102705.75
2017-12-19T22:39:49.624Z,102701.78
2017-12-19T22:42:17.315Z,102710.56
2017-12-19T22:44:44.906Z,102710.56
2017-12-19T22:47:12.526Z,102715.81
2017-12-19T22:49:40.433Z,102724.52
2017-12-19T22:52:08.098Z,102720.08
2017-12-19T22:54:35.722Z,102724.05
2017-12-19T22:57:03.621Z,102724.05
2017-12-19T22:59:31.491Z,102719.70
2017-12-19T23:01:59.154Z,102719.78
2017-12-19T23:04:26.781Z,102717.39
2017-12-19T23:06:54.409Z,102718.98
2017-12-19T23:09:22.003Z,102723.08
2017-12-19T23:11:49.681Z,102719.84
2017-12-19T23:14:17.306Z,102721.27
2017-12-19T23:16:44.904Z,102716.03
2017-12-19T23:19:12.535Z,102714.36
2017-12-19T23:21:40.158Z,102721.84
2017-12-19T23:24:08.145Z,102718.30
2017-12-19T23:26:35.764Z,102724.44
2017-12-19T23:29:03.652Z,102722.48
2017-12-19T23:31:31.374Z,102719.09
2017-12-19T23:33:59.297Z,102719.14
2017-12-19T23:36:26.879Z,102722.28
2017-12-19T23:38:54.651Z,102732.23
2017-12-19T23:41:22.267Z,102741.02
2017-12-19T23:43:49.942Z,102739.19
2017-12-19T23:46:17.528Z,102740.89
2017-12-19T23:48:45.110Z,102738.72
2017-12-19T23:51:12.738Z,102733.00
2017-12-19T23:53:40.332Z,102734.28
2017-12-19T23:56:07.931Z,102729.47
2017-12-19T23:58:35.569Z,102724.13
